createdAt,value
2017-10-03T00:01:04.281Z,13.60
2017-10-03T00:03:31.859Z,13.58
2017-10-03T00:05:59.374Z,13.58
2017-10-03T00:08:26.853Z,13.53
2017-10-03T00:10:54.406Z,13.51
2017-10-03T00:13:21.987Z,13.47
2017-10-03T00:15:49.474Z,13.42
2017-10-03T00:18:17.096Z,13.37
2017-10-03T00:20:44.587Z,13.34
2017-10-03T00:23:12.084Z,13.28
2017-10-03T00:25:39.978Z,13.24
2017-10-03T00:28:07.545Z,13.19
2017-10-03T00:30:35.035Z,13.15
2017-10-03T00:33:02.597Z,13.11
2017-10-03T00:35:30.102Z,13.09
2017-10-03T00:37:57.591Z,13.06
2017-10-03T00:40:25.160Z,13.05
2017-10-03T00:42:52.653Z,13.02
2017-10-03T00:45:20.144Z,13.00
2017-10-03T00:47:47.683Z,12.99
2017-10-03T00:50:15.260Z,12.98
2017-10-03T00:52:42.756Z,12.99
2017-10-03T00:55:10.308Z,12.98
2017-10-03T00:57:37.841Z,12.96
2017-10-03T01:00:05.328Z,12.94
2017-10-03T01:02:32.878Z,12.93
2017-10-03T01:05:00.370Z,12.91
2017-10-03T01:07:27.876Z,12.89
2017-10-03T01:09:55.430Z,12.87
2017-10-03T01:12:22.931Z,12.87
2017-10-03T01:14:50.418Z,12.84
2017-10-03T01:17:17.955Z,12.81
2017-10-03T01:19:45.443Z,12.79
2017-10-03T01:22:13.029Z,12.75
2017-10-03T01:24:40.582Z,12.73
2017-10-03T01:27:08.075Z,12.71
2017-10-03T01:29:35.567Z,12.69
2017-10-03T01:32:03.124Z,12.68
2017-10-03T01:34:30.719Z,12.69
2017-10-03T01:36:58.227Z,12.67
2017-10-03T01:39:25.773Z,12.60
2017-10-03T01:41:53.295Z,12.55
2017-10-03T01:44:20.858Z,12.53
2017-10-03T01:46:48.726Z,12.50
2017-10-03T01:49:16.216Z,12.49
2017-10-03T01:51:43.715Z,12.47
2017-10-03T01:54:11.287Z,12.45
2017-10-03T01:56:38.779Z,12.44
2017-10-03T01:59:06.303Z,12.41
2017-10-03T02:01:33.795Z,12.37
2017-10-03T02:04:01.326Z,12.37
2017-10-03T02:06:28.818Z,12.36
2017-10-03T02:08:56.314Z,12.35
2017-10-03T02:11:23.846Z,12.32
2017-10-03T02:13:51.338Z,12.28
2017-10-03T02:16:18.824Z,12.27
2017-10-03T02:18:46.363Z,12.24
2017-10-03T02:21:13.864Z,12.25
2017-10-03T02:23:41.353Z,12.24
2017-10-03T02:26:08.950Z,12.21
2017-10-03T02:28:36.506Z,12.20
2017-10-03T02:31:03.998Z,12.19
2017-10-03T02:33:31.527Z,12.19
2017-10-03T02:35:59.053Z,12.16
2017-10-03T02:38:26.541Z,12.15
2017-10-03T02:40:54.040Z,12.16
2017-10-03T02:43:21.592Z,12.17
2017-10-03T02:45:49.078Z,12.17
2017-10-03T02:48:16.560Z,12.18
2017-10-03T02:50:44.094Z,12.16
2017-10-03T02:53:11.586Z,12.13
2017-10-03T02:55:39.087Z,12.11
2017-10-03T02:58:06.620Z,12.07
2017-10-03T03:00:34.171Z,12.07
2017-10-03T03:03:01.674Z,12.08
2017-10-03T03:05:29.235Z,12.09
2017-10-03T03:07:56.721Z,12.08
2017-10-03T03:10:24.206Z,12.07
2017-10-03T03:12:51.739Z,12.05
2017-10-03T03:15:19.244Z,12.02
2017-10-03T03:17:46.787Z,12.01
2017-10-03T03:20:14.326Z,12.00
2017-10-03T03:22:41.888Z,11.99
2017-10-03T03:25:09.370Z,11.96
2017-10-03T03:27:36.895Z,11.93
2017-10-03T03:30:04.387Z,11.91
2017-10-03T03:32:31.932Z,11.89
2017-10-03T03:34:59.459Z,11.91
2017-10-03T03:37:27.038Z,11.90
2017-10-03T03:39:54.610Z,11.91
2017-10-03T03:42:22.101Z,11.89
2017-10-03T03:44:49.591Z,11.90
2017-10-03T03:47:17.183Z,11.91
2017-10-03T03:49:44.678Z,11.91
2017-10-03T03:52:12.167Z,11.89
2017-10-03T03:54:39.719Z,11.86
2017-10-03T03:57:07.209Z,11.82
2017-10-03T03:59:34.722Z,11.79
2017-10-03T04:02:02.245Z,11.78
2017-10-03T04:04:29.891Z,11.77
2017-10-03T04:06:57.450Z,11.78
2017-10-03T04:09:24.954Z,11.78
2017-10-03T04:11:52.566Z,11.79
2017-10-03T04:14:20.114Z,11.77
2017-10-03T04:16:47.613Z,11.75
2017-10-03T04:19:15.104Z,11.77
2017-10-03T04:21:42.645Z,11.76
2017-10-03T04:24:10.133Z,11.76
2017-10-03T04:26:37.637Z,11.74
2017-10-03T04:29:05.159Z,11.76
2017-10-03T04:31:32.649Z,11.77
2017-10-03T04:34:00.175Z,11.79
2017-10-03T04:36:27.714Z,11.83
2017-10-03T04:38:55.255Z,11.84
2017-10-03T04:41:22.758Z,11.85
2017-10-03T04:43:50.568Z,11.82
2017-10-03T04:46:18.095Z,11.87
2017-10-03T04:48:45.628Z,11.90
2017-10-03T04:51:13.124Z,11.90
2017-10-03T04:53:40.619Z,11.87
2017-10-03T04:56:08.139Z,11.85
2017-10-03T04:58:35.628Z,11.85
2017-10-03T05:01:03.238Z,11.85
2017-10-03T05:03:30.803Z,11.86
2017-10-03T05:05:58.354Z,11.86
2017-10-03T05:08:25.847Z,11.84
2017-10-03T05:10:53.371Z,11.82
2017-10-03T05:13:20.855Z,11.82
2017-10-03T05:15:48.376Z,11.84
2017-10-03T05:18:15.870Z,11.86
2017-10-03T05:20:43.386Z,11.87
2017-10-03T05:23:10.920Z,11.87
2017-10-03T05:25:38.415Z,11.87
2017-10-03T05:28:05.895Z,11.87
2017-10-03T05:30:33.416Z,11.88
2017-10-03T05:33:00.921Z,11.87
2017-10-03T05:35:28.474Z,11.83
2017-10-03T05:37:56.020Z,11.84
2017-10-03T05:40:23.520Z,11.86
2017-10-03T05:42:51.058Z,11.88
2017-10-03T05:45:18.551Z,11.91
2017-10-03T05:47:46.039Z,11.91
2017-10-03T05:50:13.554Z,11.92
2017-10-03T05:52:41.162Z,11.98
2017-10-03T05:55:08.648Z,12.00
2017-10-03T05:57:36.183Z,12.00
2017-10-03T06:00:03.942Z,12.03
2017-10-03T06:02:31.438Z,12.04
2017-10-03T06:04:58.932Z,12.06
2017-10-03T06:07:26.471Z,12.11
2017-10-03T06:09:53.960Z,12.14
2017-10-03T06:12:21.450Z,12.17
2017-10-03T06:14:49.005Z,12.14
2017-10-03T06:17:16.562Z,12.17
2017-10-03T06:19:44.162Z,12.20
2017-10-03T06:22:11.651Z,12.21
2017-10-03T06:24:39.241Z,12.23
2017-10-03T06:27:06.773Z,12.26
2017-10-03T06:29:34.304Z,12.30
2017-10-03T06:32:01.798Z,12.34
2017-10-03T06:34:29.290Z,12.36
2017-10-03T06:36:56.812Z,12.42
2017-10-03T06:39:24.303Z,12.47
2017-10-03T06:41:51.843Z,12.52
2017-10-03T06:44:19.400Z,12.52
2017-10-03T06:46:46.887Z,12.48
2017-10-03T06:49:14.428Z,12.45
2017-10-03T06:51:41.915Z,12.43
2017-10-03T06:54:09.418Z,12.43
2017-10-03T06:56:37.122Z,12.45
2017-10-03T06:59:04.613Z,12.54
2017-10-03T07:01:32.103Z,12.60
2017-10-03T07:03:59.678Z,12.62
2017-10-03T07:06:27.168Z,12.59
2017-10-03T07:08:54.650Z,12.52
2017-10-03T07:11:22.177Z,12.54
2017-10-03T07:13:49.712Z,12.64
2017-10-03T07:16:17.197Z,12.79
2017-10-03T07:18:44.734Z,12.92
2017-10-03T07:21:12.221Z,13.00
2017-10-03T07:23:39.708Z,13.16
2017-10-03T07:26:07.279Z,13.26
2017-10-03T07:28:34.762Z,13.35
2017-10-03T07:31:02.265Z,13.39
2017-10-03T07:33:29.781Z,13.42
2017-10-03T07:35:57.300Z,13.50
2017-10-03T07:38:24.832Z,13.52
2017-10-03T07:40:52.326Z,13.52
2017-10-03T07:43:19.803Z,13.51
2017-10-03T07:45:47.332Z,13.49
2017-10-03T07:48:14.823Z,13.45
2017-10-03T07:50:42.400Z,13.33
2017-10-03T07:53:09.927Z,13.29
2017-10-03T07:55:37.418Z,13.32
2017-10-03T07:58:05.054Z,13.40
2017-10-03T08:00:32.552Z,13.46
2017-10-03T08:03:00.036Z,13.55
2017-10-03T08:05:27.626Z,13.59
2017-10-03T08:07:55.113Z,13.54
2017-10-03T08:10:22.602Z,13.62
2017-10-03T08:12:50.195Z,13.63
2017-10-03T08:15:17.694Z,13.59
2017-10-03T08:17:45.226Z,13.59
2017-10-03T08:20:12.750Z,13.56
2017-10-03T08:22:40.234Z,13.47
2017-10-03T08:25:07.821Z,13.50
2017-10-03T08:27:35.384Z,13.67
2017-10-03T08:30:02.922Z,13.83
2017-10-03T08:32:30.487Z,13.69
2017-10-03T08:34:58.041Z,13.61
2017-10-03T08:37:25.534Z,13.53
2017-10-03T08:39:53.026Z,13.58
2017-10-03T08:42:20.560Z,13.64
2017-10-03T08:44:48.059Z,13.76
2017-10-03T08:47:15.549Z,13.98
2017-10-03T08:49:43.185Z,14.09
2017-10-03T08:52:10.684Z,14.19
2017-10-03T08:54:38.171Z,14.32
2017-10-03T08:57:05.784Z,14.57
2017-10-03T08:59:33.272Z,14.98
2017-10-03T09:02:00.780Z,15.35
2017-10-03T09:04:28.336Z,15.28
2017-10-03T09:06:55.834Z,15.05
2017-10-03T09:09:23.327Z,14.94
2017-10-03T09:11:50.939Z,14.98
2017-10-03T09:14:18.447Z,14.93
2017-10-03T09:16:45.942Z,14.92
2017-10-03T09:19:14.024Z,14.94
2017-10-03T09:21:41.528Z,14.73
2017-10-03T09:24:09.024Z,14.65
2017-10-03T09:26:36.683Z,14.61
2017-10-03T09:31:30.975Z,14.56
2017-10-03T09:33:58.746Z,14.60
2017-10-03T09:36:26.236Z,14.64
2017-10-03T09:38:53.755Z,14.71
2017-10-03T09:41:21.290Z,14.63
2017-10-03T09:43:48.786Z,14.67
2017-10-03T09:46:16.286Z,14.72
2017-10-03T09:48:44.043Z,14.79
2017-10-03T09:51:11.533Z,14.92
2017-10-03T09:53:39.047Z,14.98
2017-10-03T09:56:06.770Z,15.25
2017-10-03T09:58:34.263Z,15.44
2017-10-03T10:01:01.766Z,15.50
2017-10-03T10:03:29.561Z,15.43
2017-10-03T10:05:57.054Z,15.31
2017-10-03T10:08:24.549Z,15.32
2017-10-03T10:10:52.087Z,15.38
2017-10-03T10:13:19.609Z,15.74
2017-10-03T10:15:47.100Z,15.96
2017-10-03T10:18:14.803Z,15.89
2017-10-03T10:20:42.296Z,15.81
2017-10-03T10:23:09.796Z,15.65
2017-10-03T10:25:37.358Z,15.58
2017-10-03T10:28:04.868Z,15.42
2017-10-03T10:30:32.410Z,15.14
2017-10-03T10:32:59.952Z,14.95
2017-10-03T10:35:27.448Z,14.89
2017-10-03T10:37:54.947Z,14.97
2017-10-03T10:40:22.474Z,15.21
2017-10-03T10:42:50.002Z,15.33
2017-10-03T10:45:17.491Z,15.37
2017-10-03T10:47:44.975Z,15.54
2017-10-03T10:50:12.498Z,15.69
2017-10-03T10:52:40.152Z,15.86
2017-10-03T10:55:07.644Z,15.95
2017-10-03T10:57:35.373Z,15.71
2017-10-03T11:00:02.857Z,15.61
2017-10-03T11:02:30.347Z,15.48
2017-10-03T11:04:57.898Z,14.98
2017-10-03T11:07:25.390Z,14.74
2017-10-03T11:09:52.971Z,14.69
2017-10-03T11:12:20.518Z,14.74
2017-10-03T11:14:48.008Z,14.98
2017-10-03T11:17:15.507Z,15.21
2017-10-03T11:19:43.109Z,15.23
2017-10-03T11:22:10.598Z,15.31
2017-10-03T11:24:45.648Z,15.49
2017-10-03T11:27:13.139Z,15.76
2017-10-03T11:29:40.670Z,16.17
2017-10-03T11:32:08.213Z,16.47
2017-10-03T11:34:35.710Z,16.42
2017-10-03T11:37:03.269Z,15.52
2017-10-03T11:39:30.761Z,14.51
2017-10-03T11:41:58.254Z,14.04
2017-10-03T11:44:25.835Z,13.82
2017-10-03T11:46:53.318Z,13.55
2017-10-03T11:49:20.802Z,13.42
2017-10-03T11:51:48.361Z,13.47
2017-10-03T11:54:15.880Z,13.40
2017-10-03T11:56:43.458Z,13.42
2017-10-03T11:59:10.978Z,13.50
2017-10-03T12:01:38.464Z,13.56
2017-10-03T12:04:06.011Z,13.69
2017-10-03T12:06:33.508Z,13.79
2017-10-03T12:09:00.995Z,13.88
2017-10-03T12:11:28.531Z,14.07
2017-10-03T12:13:56.047Z,14.23
2017-10-03T12:16:23.550Z,14.38
2017-10-03T12:18:51.079Z,14.30
2017-10-03T12:21:18.666Z,14.20
2017-10-03T12:23:46.199Z,14.25
2017-10-03T12:26:13.742Z,14.28
2017-10-03T12:28:41.227Z,14.45
2017-10-03T12:31:08.760Z,14.53
2017-10-03T12:33:36.250Z,14.70
2017-10-03T12:36:03.815Z,14.94
2017-10-03T12:38:31.377Z,15.07
2017-10-03T12:40:58.867Z,15.17
2017-10-03T12:43:26.378Z,15.38
2017-10-03T12:45:53.951Z,15.53
2017-10-03T12:48:21.430Z,15.65
2017-10-03T12:50:48.982Z,15.84
2017-10-03T12:53:16.522Z,15.91
2017-10-03T12:55:44.016Z,15.87
2017-10-03T12:58:11.546Z,15.74
2017-10-03T13:00:39.035Z,15.73
2017-10-03T13:03:06.524Z,15.79
2017-10-03T13:05:34.063Z,15.72
2017-10-03T13:08:01.547Z,15.66
2017-10-03T13:10:29.030Z,15.65
2017-10-03T13:12:56.569Z,15.58
2017-10-03T13:15:24.053Z,15.71
2017-10-03T13:17:51.531Z,15.88
2017-10-03T13:20:19.068Z,16.14
2017-10-03T13:22:46.551Z,16.30
2017-10-03T13:25:14.079Z,16.43
2017-10-03T13:27:41.636Z,16.41
2017-10-03T13:30:09.118Z,16.26
2017-10-03T13:32:36.676Z,16.25
2017-10-03T13:35:04.166Z,16.29
2017-10-03T13:37:31.997Z,16.21
2017-10-03T13:39:59.543Z,16.28
2017-10-03T13:42:27.102Z,16.38
2017-10-03T13:44:54.587Z,16.56
2017-10-03T13:47:22.143Z,16.40
2017-10-03T13:49:49.670Z,16.23
2017-10-03T13:52:17.159Z,16.06
2017-10-03T13:54:44.640Z,15.84
2017-10-03T13:57:12.170Z,15.22
2017-10-03T13:59:39.656Z,14.77
2017-10-03T14:02:07.143Z,14.49
2017-10-03T14:04:34.666Z,14.31
2017-10-03T14:07:02.287Z,14.26
2017-10-03T14:09:29.781Z,14.25
2017-10-03T14:11:57.340Z,14.27
2017-10-03T14:14:24.856Z,14.24
2017-10-03T14:16:52.417Z,14.23
2017-10-03T14:19:19.953Z,14.22
2017-10-03T14:21:47.537Z,14.24
2017-10-03T14:24:15.034Z,14.26
2017-10-03T14:26:42.544Z,14.31
2017-10-03T14:29:10.043Z,14.34
2017-10-03T14:31:37.582Z,14.38
2017-10-03T14:34:05.065Z,14.42
2017-10-03T14:36:32.561Z,14.47
2017-10-03T14:39:00.089Z,14.48
2017-10-03T14:41:27.599Z,14.42
2017-10-03T14:43:55.095Z,14.36
2017-10-03T14:46:22.616Z,14.30
2017-10-03T14:48:50.090Z,14.32
2017-10-03T14:51:17.635Z,14.33
2017-10-03T14:53:45.187Z,14.31
2017-10-03T14:56:12.773Z,14.31
2017-10-03T14:58:40.291Z,14.33
2017-10-03T15:01:07.820Z,14.39
2017-10-03T15:03:35.306Z,14.44
2017-10-03T15:06:02.852Z,14.55
2017-10-03T15:08:30.333Z,14.66
2017-10-03T15:10:57.927Z,14.79
2017-10-03T15:13:25.658Z,14.88
2017-10-03T15:15:53.154Z,14.96
2017-10-03T15:18:20.645Z,15.01
2017-10-03T15:20:48.175Z,15.04
2017-10-03T15:23:15.654Z,15.00
2017-10-03T15:25:43.243Z,14.99
2017-10-03T15:28:10.747Z,14.99
2017-10-03T15:30:38.239Z,14.99
2017-10-03T15:33:05.830Z,14.99
2017-10-03T15:35:33.320Z,14.97
2017-10-03T15:38:00.853Z,14.93
2017-10-03T15:40:28.387Z,14.85
2017-10-03T15:42:55.877Z,14.77
2017-10-03T15:45:23.361Z,14.73
2017-10-03T15:47:50.879Z,14.70
2017-10-03T15:50:18.387Z,14.66
2017-10-03T15:52:45.943Z,14.63
2017-10-03T15:55:13.572Z,14.60
2017-10-03T15:57:41.046Z,14.59
2017-10-03T16:00:08.537Z,14.58
2017-10-03T16:02:36.276Z,14.58
2017-10-03T16:05:03.791Z,14.51
2017-10-03T16:07:32.181Z,14.17
2017-10-03T16:09:59.730Z,13.83
2017-10-03T16:12:29.364Z,13.55
2017-10-03T16:14:56.840Z,13.27
2017-10-03T16:17:24.340Z,13.18
2017-10-03T16:19:51.886Z,13.02
2017-10-03T16:22:19.371Z,12.79
2017-10-03T16:24:46.881Z,12.71
2017-10-03T16:27:14.570Z,12.67
2017-10-03T16:29:42.074Z,12.67
2017-10-03T16:32:09.564Z,12.60
2017-10-03T16:34:37.124Z,12.64
2017-10-03T16:37:04.839Z,12.68
2017-10-03T16:39:32.328Z,12.65
2017-10-03T16:41:59.827Z,12.66
2017-10-03T16:44:27.354Z,12.84
2017-10-03T16:46:54.971Z,12.95
2017-10-03T16:49:22.458Z,12.92
2017-10-03T16:51:49.978Z,12.89
2017-10-03T16:54:17.459Z,12.84
2017-10-03T16:56:44.994Z,12.88
2017-10-03T16:59:12.689Z,12.88
2017-10-03T17:01:40.199Z,12.84
2017-10-03T17:04:07.685Z,12.81
2017-10-03T17:06:35.238Z,12.85
2017-10-03T17:09:02.745Z,12.84
2017-10-03T17:11:30.248Z,12.76
2017-10-03T17:13:57.947Z,12.72
2017-10-03T17:16:25.419Z,12.66
2017-10-03T17:18:52.899Z,12.71
2017-10-03T17:21:20.446Z,12.64
2017-10-03T17:23:47.936Z,12.64
2017-10-03T17:26:15.427Z,12.67
2017-10-03T17:28:43.005Z,12.70
2017-10-03T17:31:10.526Z,12.81
2017-10-03T17:33:38.108Z,12.77
2017-10-03T17:36:05.628Z,12.68
2017-10-03T17:38:33.168Z,12.62
2017-10-03T17:41:00.663Z,12.61
2017-10-03T17:43:28.180Z,12.60
2017-10-03T17:45:55.783Z,12.60
2017-10-03T17:48:23.347Z,12.58
2017-10-03T17:50:50.893Z,12.61
2017-10-03T17:53:18.456Z,12.66
2017-10-03T17:55:45.931Z,12.68
2017-10-03T17:58:13.415Z,12.68
2017-10-03T18:00:40.957Z,12.71
2017-10-03T18:03:08.443Z,12.75
2017-10-03T18:05:35.931Z,12.81
2017-10-03T18:08:03.711Z,12.86
2017-10-03T18:10:31.285Z,12.90
2017-10-03T18:12:58.772Z,12.93
2017-10-03T18:15:26.298Z,12.93
2017-10-03T18:17:53.787Z,12.92
2017-10-03T18:20:21.430Z,12.94
2017-10-03T18:22:48.918Z,12.96
2017-10-03T18:25:16.752Z,12.98
2017-10-03T18:27:44.720Z,12.96
2017-10-03T18:30:12.206Z,12.95
2017-10-03T18:32:39.738Z,12.91
2017-10-03T18:35:07.280Z,12.89
2017-10-03T18:37:34.776Z,12.91
2017-10-03T18:40:02.293Z,12.94
2017-10-03T18:42:29.851Z,12.97
2017-10-03T18:44:57.619Z,12.99
2017-10-03T18:47:25.106Z,12.96
2017-10-03T18:49:52.595Z,12.89
2017-10-03T18:52:20.123Z,12.78
2017-10-03T18:54:47.633Z,12.72
2017-10-03T18:57:15.186Z,12.61
2017-10-03T18:59:42.894Z,12.55
2017-10-03T19:02:10.388Z,12.51
2017-10-03T19:04:37.892Z,12.46
2017-10-03T19:07:05.539Z,12.40
2017-10-03T19:09:33.014Z,12.36
2017-10-03T19:12:00.506Z,12.33
2017-10-03T19:14:28.055Z,12.27
2017-10-03T19:16:55.570Z,12.24
2017-10-03T19:19:23.058Z,12.19
2017-10-03T19:21:50.586Z,12.15
2017-10-03T19:24:18.078Z,12.13
2017-10-03T19:26:45.567Z,12.08
2017-10-03T19:29:13.095Z,12.04
2017-10-03T19:31:40.585Z,12.06
2017-10-03T19:34:08.063Z,12.01
2017-10-03T19:36:35.587Z,11.94
2017-10-03T19:39:03.137Z,11.89
2017-10-03T19:41:30.622Z,11.84
2017-10-03T19:43:58.132Z,11.78
2017-10-03T19:46:25.668Z,11.75
2017-10-03T19:48:53.163Z,11.71
2017-10-03T19:51:20.694Z,11.68
2017-10-03T19:53:48.462Z,11.66
2017-10-03T19:56:15.958Z,11.64
2017-10-03T19:58:43.471Z,11.60
2017-10-03T20:01:11.248Z,11.58
2017-10-03T20:03:38.736Z,11.55
2017-10-03T20:06:06.224Z,11.55
2017-10-03T20:08:33.744Z,11.56
2017-10-03T20:11:01.260Z,11.58
2017-10-03T20:13:28.761Z,11.57
2017-10-03T20:15:56.284Z,11.56
2017-10-03T20:18:23.807Z,11.55
2017-10-03T20:20:51.382Z,11.54
2017-10-03T20:23:18.970Z,11.52
2017-10-03T20:25:46.454Z,11.51
2017-10-03T20:28:13.946Z,11.50
2017-10-03T20:30:41.490Z,11.50
2017-10-03T20:33:09.026Z,11.53
2017-10-03T20:35:36.512Z,11.53
2017-10-03T20:38:04.046Z,11.52
2017-10-03T20:40:31.545Z,11.51
2017-10-03T20:42:59.127Z,11.51
2017-10-03T20:45:26.692Z,11.55
2017-10-03T20:47:54.185Z,11.60
2017-10-03T20:50:21.674Z,11.61
2017-10-03T20:52:49.202Z,11.59
2017-10-03T20:55:16.690Z,11.56
2017-10-03T20:57:44.187Z,11.54
2017-10-03T21:00:11.715Z,11.48
2017-10-03T21:02:39.214Z,11.43
2017-10-03T21:05:06.760Z,11.38
2017-10-03T21:07:34.254Z,11.36
2017-10-03T21:10:01.743Z,11.36
2017-10-03T21:12:29.331Z,11.37
2017-10-03T21:14:56.897Z,11.34
2017-10-03T21:17:24.422Z,11.33
2017-10-03T21:19:51.914Z,11.33
2017-10-03T21:22:19.455Z,11.28
2017-10-03T21:24:46.935Z,11.22
2017-10-03T21:27:14.423Z,11.22
2017-10-03T21:29:41.941Z,11.19
2017-10-03T21:32:09.481Z,11.17
2017-10-03T21:34:36.970Z,11.16
2017-10-03T21:37:04.522Z,11.16
2017-10-03T21:39:32.083Z,11.12
2017-10-03T21:42:11.536Z,11.13
2017-10-03T21:44:39.091Z,11.15
2017-10-03T21:47:06.575Z,11.13
2017-10-03T21:49:34.109Z,11.15
2017-10-03T21:52:01.758Z,11.16
2017-10-03T21:54:29.252Z,11.15
2017-10-03T21:56:56.782Z,11.14
2017-10-03T21:59:24.335Z,11.13
2017-10-03T22:01:51.832Z,11.12
2017-10-03T22:04:19.383Z,11.11
2017-10-03T22:06:46.882Z,11.08
2017-10-03T22:09:14.447Z,11.09
2017-10-03T22:11:41.983Z,11.17
2017-10-03T22:14:09.470Z,11.16
2017-10-03T22:16:36.984Z,11.13
2017-10-03T22:19:04.623Z,11.12
2017-10-03T22:21:32.119Z,11.12
2017-10-03T22:23:59.606Z,11.10
2017-10-03T22:26:27.142Z,11.06
2017-10-03T22:28:54.622Z,11.04
2017-10-03T22:31:22.103Z,11.02
2017-10-03T22:33:49.654Z,11.00
2017-10-03T22:36:17.203Z,10.97
2017-10-03T22:38:44.689Z,10.95
2017-10-03T22:41:12.233Z,10.93
2017-10-03T22:43:39.722Z,10.93
2017-10-03T22:46:07.243Z,10.93
2017-10-03T22:48:34.767Z,10.91
2017-10-03T22:51:07.992Z,10.91
2017-10-03T22:53:35.514Z,10.90
2017-10-03T22:56:03.006Z,10.90
2017-10-03T22:58:30.563Z,10.91
2017-10-03T23:00:58.119Z,10.88
2017-10-03T23:03:25.600Z,10.90
2017-10-03T23:05:53.130Z,10.90
2017-10-03T23:08:20.603Z,10.91
2017-10-03T23:10:48.087Z,10.90
2017-10-03T23:13:15.623Z,10.89
2017-10-03T23:15:43.111Z,10.89
2017-10-03T23:18:10.598Z,10.85
2017-10-03T23:20:38.140Z,10.83
2017-10-03T23:23:05.627Z,10.85
2017-10-03T23:25:33.212Z,10.83
2017-10-03T23:28:00.735Z,10.83
2017-10-03T23:30:28.220Z,10.84
2017-10-03T23:32:55.710Z,10.87
2017-10-03T23:35:23.223Z,10.89
2017-10-03T23:37:50.825Z,10.91
2017-10-03T23:40:18.351Z,10.94
2017-10-03T23:42:45.865Z,10.97
2017-10-03T23:45:13.372Z,11.03
2017-10-03T23:47:40.918Z,11.07
2017-10-03T23:50:08.406Z,11.10
2017-10-03T23:52:35.914Z,11.11
2017-10-03T23:55:03.448Z,11.12
2017-10-03T23:57:30.938Z,11.14
2017-10-03T23:59:58.435Z,11.16
